Dunlap, Illinois
Current Conditions -  °F | °C
As of 4:54 AM on Friday 21 Nov 2014 (Local Time) from KPIA Reporting Station
Clear Clear  
Wind Chill:   Ceiling: Unl
Heat Index: 14°   Visibility: 10mi
Dew Point:   Wind: 8mph
Humidity: 67%   Direction: 70°ENE
Pressure: 30.41"   Gusts: NA
Location:  40.86°N, 89.68°W
Report Text: KPIA 211054Z 07007KT 10SM CLR M10/M15 A3041 RMK AO2 SLP307 T11001150
Loading
Personal Weather Stations






























Interactive Weather Map New forecast layout! Learn more

10-Day Weather Forecast

Advertisements
Track Severe Weather on mobile